<?xml version="1.0" encoding="UTF-8"?>
<gpx xmlns="http://www.topografix.com/GPX/1/1" xmlns:xsi="http://www.w3.org/2001/XMLSchema-instance" version="1.1" xsi:schemaLocation="http://www.topografix.com/GPX/1/1 http://www.topografix.com/GPX/1/1/gpx.xsd">
  <metadata>
    <name>Huntington Lake Triathlon 2022</name>
  </metadata>
  <trk>
    <name>Huntington Lake Triathlon 2022</name>
    <trkseg>
      <trkpt lat="37.251369" lon="-119.174087">
        <ele>2123.404013</ele>
        <time>2024-06-23T08:42:00.000Z</time>
      </trkpt>
      <trkpt lat="37.251384" lon="-119.174091">
        <ele>2123.404011</ele>
        <time>2024-06-23T08:42:00.000Z</time>
      </trkpt>
      <trkpt lat="37.251506" lon="-119.174138">
        <ele>2123.404025</ele>
        <time>2024-06-23T08:42:01.000Z</time>
      </trkpt>
      <trkpt lat="37.251685" lon="-119.174218">
        <ele>2123.404011</ele>
        <time>2024-06-23T08:42:03.000Z</time>
      </trkpt>
      <trkpt lat="37.251986" lon="-119.174543">
        <ele>2123.40401</ele>
        <time>2024-06-23T08:42:07.000Z</time>
      </trkpt>
      <trkpt lat="37.252407" lon="-119.174611">
        <ele>2123.418047</ele>
        <time>2024-06-23T08:42:12.000Z</time>
      </trkpt>
      <trkpt lat="37.252462" lon="-119.174936">
        <ele>2123.433032</ele>
        <time>2024-06-23T08:42:15.000Z</time>
      </trkpt>
      <trkpt lat="37.252638" lon="-119.17536">
        <ele>2123.454027</ele>
        <time>2024-06-23T08:42:19.000Z</time>
      </trkpt>
      <trkpt lat="37.252634" lon="-119.176637">
        <ele>2123.453187</ele>
        <time>2024-06-23T08:42:30.000Z</time>
      </trkpt>
      <trkpt lat="37.252534" lon="-119.177498">
        <ele>2123.107802</ele>
        <time>2024-06-23T08:42:38.000Z</time>
      </trkpt>
      <trkpt lat="37.252109" lon="-119.17902">
        <ele>2122.597823</ele>
        <time>2024-06-23T08:42:52.000Z</time>
      </trkpt>
      <trkpt lat="37.251981" lon="-119.179574">
        <ele>2122.581683</ele>
        <time>2024-06-23T08:42:57.000Z</time>
      </trkpt>
      <trkpt lat="37.251918" lon="-119.180144">
        <ele>2122.565566</ele>
        <time>2024-06-23T08:43:02.000Z</time>
      </trkpt>
      <trkpt lat="37.251564" lon="-119.180849">
        <ele>2122.779167</ele>
        <time>2024-06-23T08:43:09.000Z</time>
      </trkpt>
      <trkpt lat="37.251379" lon="-119.181028">
        <ele>2123.501673</ele>
        <time>2024-06-23T08:43:12.000Z</time>
      </trkpt>
      <trkpt lat="37.251126" lon="-119.181103">
        <ele>2124.290675</ele>
        <time>2024-06-23T08:43:15.000Z</time>
      </trkpt>
      <trkpt lat="37.250556" lon="-119.180926">
        <ele>2126.116802</ele>
        <time>2024-06-23T08:43:22.000Z</time>
      </trkpt>
      <trkpt lat="37.250427" lon="-119.180941">
        <ele>2126.533513</ele>
        <time>2024-06-23T08:43:23.000Z</time>
      </trkpt>
      <trkpt lat="37.250277" lon="-119.180998">
        <ele>2126.981315</ele>
        <time>2024-06-23T08:43:25.000Z</time>
      </trkpt>
      <trkpt lat="37.250206" lon="-119.181099">
        <ele>2127.346567</ele>
        <time>2024-06-23T08:43:26.000Z</time>
      </trkpt>
      <trkpt lat="37.250121" lon="-119.181405">
        <ele>2128.246629</ele>
        <time>2024-06-23T08:43:29.000Z</time>
      </trkpt>
      <trkpt lat="37.25015" lon="-119.181595">
        <ele>2129.298972</ele>
        <time>2024-06-23T08:43:31.000Z</time>
      </trkpt>
      <trkpt lat="37.250253" lon="-119.181763">
        <ele>2130.473226</ele>
        <time>2024-06-23T08:43:33.000Z</time>
      </trkpt>
      <trkpt lat="37.251014" lon="-119.182263">
        <ele>2136.384927</ele>
        <time>2024-06-23T08:43:43.000Z</time>
      </trkpt>
      <trkpt lat="37.251187" lon="-119.18245">
        <ele>2137.990287</ele>
        <time>2024-06-23T08:43:46.000Z</time>
      </trkpt>
      <trkpt lat="37.252164" lon="-119.183836">
        <ele>2148.253601</ele>
        <time>2024-06-23T08:44:02.000Z</time>
      </trkpt>
      <trkpt lat="37.252367" lon="-119.183944">
        <ele>2149.772432</ele>
        <time>2024-06-23T08:44:04.000Z</time>
      </trkpt>
      <trkpt lat="37.252887" lon="-119.18394">
        <ele>2153.210419</ele>
        <time>2024-06-23T08:44:10.000Z</time>
      </trkpt>
      <trkpt lat="37.252991" lon="-119.18412">
        <ele>2154.330464</ele>
        <time>2024-06-23T08:44:12.000Z</time>
      </trkpt>
      <trkpt lat="37.252979" lon="-119.184302">
        <ele>2155.175924</ele>
        <time>2024-06-23T08:44:14.000Z</time>
      </trkpt>
      <trkpt lat="37.252827" lon="-119.184441">
        <ele>2156.242731</ele>
        <time>2024-06-23T08:44:16.000Z</time>
      </trkpt>
      <trkpt lat="37.250467" lon="-119.184875">
        <ele>2170.245428</ele>
        <time>2024-06-23T08:44:43.000Z</time>
      </trkpt>
      <trkpt lat="37.250031" lon="-119.185081">
        <ele>2172.925923</ele>
        <time>2024-06-23T08:44:48.000Z</time>
      </trkpt>
      <trkpt lat="37.249812" lon="-119.185389">
        <ele>2174.144268</ele>
        <time>2024-06-23T08:44:52.000Z</time>
      </trkpt>
      <trkpt lat="37.249745" lon="-119.185567">
        <ele>2174.251784</ele>
        <time>2024-06-23T08:44:54.000Z</time>
      </trkpt>
      <trkpt lat="37.249716" lon="-119.185782">
        <ele>2174.368048</ele>
        <time>2024-06-23T08:44:56.000Z</time>
      </trkpt>
      <trkpt lat="37.249745" lon="-119.186193">
        <ele>2174.592096</ele>
        <time>2024-06-23T08:45:00.000Z</time>
      </trkpt>
      <trkpt lat="37.250181" lon="-119.188473">
        <ele>2172.25486</ele>
        <time>2024-06-23T08:45:21.000Z</time>
      </trkpt>
      <trkpt lat="37.250207" lon="-119.188889">
        <ele>2171.075634</ele>
        <time>2024-06-23T08:45:25.000Z</time>
      </trkpt>
      <trkpt lat="37.250162" lon="-119.189959">
        <ele>2168.0744</ele>
        <time>2024-06-23T08:45:34.000Z</time>
      </trkpt>
      <trkpt lat="37.249979" lon="-119.191112">
        <ele>2164.740766</ele>
        <time>2024-06-23T08:45:44.000Z</time>
      </trkpt>
      <trkpt lat="37.249679" lon="-119.192295">
        <ele>2161.772383</ele>
        <time>2024-06-23T08:45:55.000Z</time>
      </trkpt>
      <trkpt lat="37.249675" lon="-119.192923">
        <ele>2160.722922</ele>
        <time>2024-06-23T08:46:01.000Z</time>
      </trkpt>
      <trkpt lat="37.249565" lon="-119.193414">
        <ele>2159.888425</ele>
        <time>2024-06-23T08:46:06.000Z</time>
      </trkpt>
      <trkpt lat="37.249285" lon="-119.193898">
        <ele>2158.876912</ele>
        <time>2024-06-23T08:46:11.000Z</time>
      </trkpt>
      <trkpt lat="37.248768" lon="-119.194584">
        <ele>2158.795114</ele>
        <time>2024-06-23T08:46:19.000Z</time>
      </trkpt>
      <trkpt lat="37.248565" lon="-119.195014">
        <ele>2158.793715</ele>
        <time>2024-06-23T08:46:23.000Z</time>
      </trkpt>
      <trkpt lat="37.248482" lon="-119.195437">
        <ele>2158.792509</ele>
        <time>2024-06-23T08:46:27.000Z</time>
      </trkpt>
      <trkpt lat="37.248562" lon="-119.196419">
        <ele>2158.776537</ele>
        <time>2024-06-23T08:46:36.000Z</time>
      </trkpt>
      <trkpt lat="37.248642" lon="-119.197135">
        <ele>2158.757685</ele>
        <time>2024-06-23T08:46:42.000Z</time>
      </trkpt>
      <trkpt lat="37.248683" lon="-119.197912">
        <ele>2158.736923</ele>
        <time>2024-06-23T08:46:49.000Z</time>
      </trkpt>
      <trkpt lat="37.248571" lon="-119.199156">
        <ele>2154.684253</ele>
        <time>2024-06-23T08:47:00.000Z</time>
      </trkpt>
      <trkpt lat="37.248302" lon="-119.199681">
        <ele>2152.336389</ele>
        <time>2024-06-23T08:47:06.000Z</time>
      </trkpt>
      <trkpt lat="37.248136" lon="-119.199803">
        <ele>2151.377214</ele>
        <time>2024-06-23T08:47:08.000Z</time>
      </trkpt>
      <trkpt lat="37.247686" lon="-119.200064">
        <ele>2149.800056</ele>
        <time>2024-06-23T08:47:14.000Z</time>
      </trkpt>
      <trkpt lat="37.247502" lon="-119.200329">
        <ele>2149.480378</ele>
        <time>2024-06-23T08:47:17.000Z</time>
      </trkpt>
      <trkpt lat="37.247416" lon="-119.200805">
        <ele>2149.039226</ele>
        <time>2024-06-23T08:47:21.000Z</time>
      </trkpt>
      <trkpt lat="37.247405" lon="-119.201396">
        <ele>2148.485427</ele>
        <time>2024-06-23T08:47:26.000Z</time>
      </trkpt>
      <trkpt lat="37.247294" lon="-119.201638">
        <ele>2148.22709</ele>
        <time>2024-06-23T08:47:28.000Z</time>
      </trkpt>
      <trkpt lat="37.247169" lon="-119.201723">
        <ele>2148.070781</ele>
        <time>2024-06-23T08:47:30.000Z</time>
      </trkpt>
      <trkpt lat="37.246659" lon="-119.201898">
        <ele>2151.384206</ele>
        <time>2024-06-23T08:47:36.000Z</time>
      </trkpt>
      <trkpt lat="37.246552" lon="-119.201988">
        <ele>2152.335851</ele>
        <time>2024-06-23T08:47:37.000Z</time>
      </trkpt>
      <trkpt lat="37.246119" lon="-119.202641">
        <ele>2157.308072</ele>
        <time>2024-06-23T08:47:45.000Z</time>
      </trkpt>
      <trkpt lat="37.245695" lon="-119.203813">
        <ele>2164.566789</ele>
        <time>2024-06-23T08:47:56.000Z</time>
      </trkpt>
      <trkpt lat="37.244877" lon="-119.20475">
        <ele>2172.075132</ele>
        <time>2024-06-23T08:48:08.000Z</time>
      </trkpt>
      <trkpt lat="37.244697" lon="-119.205029">
        <ele>2173.61371</ele>
        <time>2024-06-23T08:48:11.000Z</time>
      </trkpt>
      <trkpt lat="37.244435" lon="-119.205961">
        <ele>2176.038531</ele>
        <time>2024-06-23T08:48:20.000Z</time>
      </trkpt>
      <trkpt lat="37.244346" lon="-119.206746">
        <ele>2177.9318</ele>
        <time>2024-06-23T08:48:27.000Z</time>
      </trkpt>
      <trkpt lat="37.244253" lon="-119.207297">
        <ele>2178.935528</ele>
        <time>2024-06-23T08:48:32.000Z</time>
      </trkpt>
      <trkpt lat="37.243447" lon="-119.209453">
        <ele>2180.034135</ele>
        <time>2024-06-23T08:48:53.000Z</time>
      </trkpt>
      <trkpt lat="37.243262" lon="-119.209718">
        <ele>2180.250306</ele>
        <time>2024-06-23T08:48:56.000Z</time>
      </trkpt>
      <trkpt lat="37.242428" lon="-119.210388">
        <ele>2180.98473</ele>
        <time>2024-06-23T08:49:07.000Z</time>
      </trkpt>
      <trkpt lat="37.242068" lon="-119.210773">
        <ele>2181.009782</ele>
        <time>2024-06-23T08:49:12.000Z</time>
      </trkpt>
      <trkpt lat="37.241925" lon="-119.211066">
        <ele>2180.753726</ele>
        <time>2024-06-23T08:49:15.000Z</time>
      </trkpt>
      <trkpt lat="37.24174" lon="-119.212262">
        <ele>2179.848173</ele>
        <time>2024-06-23T08:49:26.000Z</time>
      </trkpt>
      <trkpt lat="37.241606" lon="-119.212628">
        <ele>2179.541173</ele>
        <time>2024-06-23T08:49:30.000Z</time>
      </trkpt>
      <trkpt lat="37.239801" lon="-119.214908">
        <ele>2161.745394</ele>
        <time>2024-06-23T08:49:59.000Z</time>
      </trkpt>
      <trkpt lat="37.238774" lon="-119.216517">
        <ele>2146.5344</ele>
        <time>2024-06-23T08:50:17.000Z</time>
      </trkpt>
      <trkpt lat="37.238677" lon="-119.216726">
        <ele>2144.778077</ele>
        <time>2024-06-23T08:50:19.000Z</time>
      </trkpt>
      <trkpt lat="37.238476" lon="-119.21737">
        <ele>2140.056413</ele>
        <time>2024-06-23T08:50:25.000Z</time>
      </trkpt>
      <trkpt lat="37.237976" lon="-119.218203">
        <ele>2135.025715</ele>
        <time>2024-06-23T08:50:34.000Z</time>
      </trkpt>
      <trkpt lat="37.237661" lon="-119.219047">
        <ele>2133.230932</ele>
        <time>2024-06-23T08:50:42.000Z</time>
      </trkpt>
      <trkpt lat="37.23756" lon="-119.219477">
        <ele>2132.361648</ele>
        <time>2024-06-23T08:50:46.000Z</time>
      </trkpt>
      <trkpt lat="37.237506" lon="-119.220116">
        <ele>2131.352763</ele>
        <time>2024-06-23T08:50:52.000Z</time>
      </trkpt>
      <trkpt lat="37.237545" lon="-119.221711">
        <ele>2130.46061</ele>
        <time>2024-06-23T08:51:06.000Z</time>
      </trkpt>
      <trkpt lat="37.237506" lon="-119.223275">
        <ele>2129.294389</ele>
        <time>2024-06-23T08:51:20.000Z</time>
      </trkpt>
      <trkpt lat="37.237658" lon="-119.22373">
        <ele>2128.88982</ele>
        <time>2024-06-23T08:51:24.000Z</time>
      </trkpt>
      <trkpt lat="37.23817" lon="-119.224322">
        <ele>2127.982539</ele>
        <time>2024-06-23T08:51:32.000Z</time>
      </trkpt>
      <trkpt lat="37.238304" lon="-119.224621">
        <ele>2127.380034</ele>
        <time>2024-06-23T08:51:35.000Z</time>
      </trkpt>
      <trkpt lat="37.238374" lon="-119.225161">
        <ele>2126.455525</ele>
        <time>2024-06-23T08:51:40.000Z</time>
      </trkpt>
      <trkpt lat="37.238222" lon="-119.226282">
        <ele>2124.471277</ele>
        <time>2024-06-23T08:51:50.000Z</time>
      </trkpt>
      <trkpt lat="37.238138" lon="-119.22704">
        <ele>2123.689674</ele>
        <time>2024-06-23T08:51:57.000Z</time>
      </trkpt>
      <trkpt lat="37.238109" lon="-119.227284">
        <ele>2123.444627</ele>
        <time>2024-06-23T08:51:59.000Z</time>
      </trkpt>
      <trkpt lat="37.237844" lon="-119.22936">
        <ele>2121.816539</ele>
        <time>2024-06-23T08:52:18.000Z</time>
      </trkpt>
      <trkpt lat="37.237774" lon="-119.230636">
        <ele>2121.253193</ele>
        <time>2024-06-23T08:52:29.000Z</time>
      </trkpt>
      <trkpt lat="37.237652" lon="-119.230845">
        <ele>2121.165398</ele>
        <time>2024-06-23T08:52:31.000Z</time>
      </trkpt>
      <trkpt lat="37.237313" lon="-119.23118">
        <ele>2121.033871</ele>
        <time>2024-06-23T08:52:36.000Z</time>
      </trkpt>
      <trkpt lat="37.236293" lon="-119.233277">
        <ele>2120.934497</ele>
        <time>2024-06-23T08:52:58.000Z</time>
      </trkpt>
      <trkpt lat="37.235711" lon="-119.234072">
        <ele>2121.307012</ele>
        <time>2024-06-23T08:53:08.000Z</time>
      </trkpt>
      <trkpt lat="37.235679" lon="-119.23416">
        <ele>2121.338359</ele>
        <time>2024-06-23T08:53:09.000Z</time>
      </trkpt>
      <trkpt lat="37.235678" lon="-119.234505">
        <ele>2121.614332</ele>
        <time>2024-06-23T08:53:12.000Z</time>
      </trkpt>
      <trkpt lat="37.235749" lon="-119.234809">
        <ele>2122.196902</ele>
        <time>2024-06-23T08:53:15.000Z</time>
      </trkpt>
      <trkpt lat="37.236127" lon="-119.235308">
        <ele>2123.466089</ele>
        <time>2024-06-23T08:53:21.000Z</time>
      </trkpt>
      <trkpt lat="37.236159" lon="-119.23589">
        <ele>2124.539835</ele>
        <time>2024-06-23T08:53:26.000Z</time>
      </trkpt>
      <trkpt lat="37.236537" lon="-119.236453">
        <ele>2126.188179</ele>
        <time>2024-06-23T08:53:33.000Z</time>
      </trkpt>
      <trkpt lat="37.236678" lon="-119.237847">
        <ele>2131.433866</ele>
        <time>2024-06-23T08:53:45.000Z</time>
      </trkpt>
      <trkpt lat="37.236674" lon="-119.238314">
        <ele>2133.201435</ele>
        <time>2024-06-23T08:53:49.000Z</time>
      </trkpt>
      <trkpt lat="37.236597" lon="-119.238414">
        <ele>2133.673902</ele>
        <time>2024-06-23T08:53:50.000Z</time>
      </trkpt>
      <trkpt lat="37.236424" lon="-119.238426">
        <ele>2134.068137</ele>
        <time>2024-06-23T08:53:52.000Z</time>
      </trkpt>
      <trkpt lat="37.236159" lon="-119.238264">
        <ele>2134.141316</ele>
        <time>2024-06-23T08:53:55.000Z</time>
      </trkpt>
      <trkpt lat="37.235976" lon="-119.2379">
        <ele>2134.226883</ele>
        <time>2024-06-23T08:53:59.000Z</time>
      </trkpt>
      <trkpt lat="37.235498" lon="-119.236772">
        <ele>2134.477664</ele>
        <time>2024-06-23T08:54:10.000Z</time>
      </trkpt>
      <trkpt lat="37.235335" lon="-119.235992">
        <ele>2131.691662</ele>
        <time>2024-06-23T08:54:17.000Z</time>
      </trkpt>
      <trkpt lat="37.234858" lon="-119.235122">
        <ele>2127.821298</ele>
        <time>2024-06-23T08:54:26.000Z</time>
      </trkpt>
      <trkpt lat="37.234415" lon="-119.234658">
        <ele>2125.983641</ele>
        <time>2024-06-23T08:54:32.000Z</time>
      </trkpt>
      <trkpt lat="37.234256" lon="-119.23454">
        <ele>2125.820993</ele>
        <time>2024-06-23T08:54:34.000Z</time>
      </trkpt>
      <trkpt lat="37.23407" lon="-119.234512">
        <ele>2125.665764</ele>
        <time>2024-06-23T08:54:36.000Z</time>
      </trkpt>
      <trkpt lat="37.233817" lon="-119.23461">
        <ele>2125.443256</ele>
        <time>2024-06-23T08:54:39.000Z</time>
      </trkpt>
      <trkpt lat="37.233327" lon="-119.235018">
        <ele>2124.946417</ele>
        <time>2024-06-23T08:54:46.000Z</time>
      </trkpt>
      <trkpt lat="37.232816" lon="-119.235422">
        <ele>2124.671742</ele>
        <time>2024-06-23T08:54:53.000Z</time>
      </trkpt>
      <trkpt lat="37.232548" lon="-119.235574">
        <ele>2124.69693</ele>
        <time>2024-06-23T08:54:56.000Z</time>
      </trkpt>
      <trkpt lat="37.232296" lon="-119.235587">
        <ele>2124.718816</ele>
        <time>2024-06-23T08:54:59.000Z</time>
      </trkpt>
      <trkpt lat="37.23206" lon="-119.235504">
        <ele>2124.73912</ele>
        <time>2024-06-23T08:55:02.000Z</time>
      </trkpt>
      <trkpt lat="37.231907" lon="-119.235309">
        <ele>2124.758255</ele>
        <time>2024-06-23T08:55:04.000Z</time>
      </trkpt>
      <trkpt lat="37.231757" lon="-119.235067">
        <ele>2124.778449</ele>
        <time>2024-06-23T08:55:07.000Z</time>
      </trkpt>
      <trkpt lat="37.231693" lon="-119.234902">
        <ele>2124.791396</ele>
        <time>2024-06-23T08:55:09.000Z</time>
      </trkpt>
      <trkpt lat="37.231607" lon="-119.234752">
        <ele>2124.772502</ele>
        <time>2024-06-23T08:55:11.000Z</time>
      </trkpt>
      <trkpt lat="37.231464" lon="-119.234665">
        <ele>2124.491517</ele>
        <time>2024-06-23T08:55:13.000Z</time>
      </trkpt>
      <trkpt lat="37.2313" lon="-119.234643">
        <ele>2124.192</ele>
        <time>2024-06-23T08:55:15.000Z</time>
      </trkpt>
      <trkpt lat="37.230566" lon="-119.234855">
        <ele>2122.849039</ele>
        <time>2024-06-23T08:55:23.000Z</time>
      </trkpt>
      <trkpt lat="37.230465" lon="-119.234844">
        <ele>2122.682323</ele>
        <time>2024-06-23T08:55:24.000Z</time>
      </trkpt>
      <trkpt lat="37.230284" lon="-119.234599">
        <ele>2122.195138</ele>
        <time>2024-06-23T08:55:27.000Z</time>
      </trkpt>
      <trkpt lat="37.230281" lon="-119.234019">
        <ele>2121.413783</ele>
        <time>2024-06-23T08:55:32.000Z</time>
      </trkpt>
      <trkpt lat="37.230192" lon="-119.233875">
        <ele>2121.230799</ele>
        <time>2024-06-23T08:55:34.000Z</time>
      </trkpt>
      <trkpt lat="37.230074" lon="-119.23382">
        <ele>2121.045132</ele>
        <time>2024-06-23T08:55:35.000Z</time>
      </trkpt>
      <trkpt lat="37.229862" lon="-119.233867">
        <ele>2120.757674</ele>
        <time>2024-06-23T08:55:37.000Z</time>
      </trkpt>
      <trkpt lat="37.229748" lon="-119.234021">
        <ele>2120.524205</ele>
        <time>2024-06-23T08:55:39.000Z</time>
      </trkpt>
      <trkpt lat="37.229403" lon="-119.234789">
        <ele>2119.582851</ele>
        <time>2024-06-23T08:55:47.000Z</time>
      </trkpt>
      <trkpt lat="37.228066" lon="-119.236229">
        <ele>2118.393253</ele>
        <time>2024-06-23T08:56:07.000Z</time>
      </trkpt>
      <trkpt lat="37.228031" lon="-119.236309">
        <ele>2118.358199</ele>
        <time>2024-06-23T08:56:08.000Z</time>
      </trkpt>
      <trkpt lat="37.228067" lon="-119.236239">
        <ele>2118.323158</ele>
        <time>2024-06-23T08:56:09.000Z</time>
      </trkpt>
      <trkpt lat="37.22939" lon="-119.234773">
        <ele>2119.661614</ele>
        <time>2024-06-23T08:56:29.000Z</time>
      </trkpt>
      <trkpt lat="37.229734" lon="-119.234029">
        <ele>2120.53571</ele>
        <time>2024-06-23T08:56:37.000Z</time>
      </trkpt>
      <trkpt lat="37.229847" lon="-119.233874">
        <ele>2120.785188</ele>
        <time>2024-06-23T08:56:39.000Z</time>
      </trkpt>
      <trkpt lat="37.230071" lon="-119.233827">
        <ele>2121.092348</ele>
        <time>2024-06-23T08:56:42.000Z</time>
      </trkpt>
      <trkpt lat="37.230201" lon="-119.233885">
        <ele>2121.290744</ele>
        <time>2024-06-23T08:56:44.000Z</time>
      </trkpt>
      <trkpt lat="37.230288" lon="-119.234005">
        <ele>2121.486259</ele>
        <time>2024-06-23T08:56:45.000Z</time>
      </trkpt>
      <trkpt lat="37.230276" lon="-119.234602">
        <ele>2122.164954</ele>
        <time>2024-06-23T08:56:50.000Z</time>
      </trkpt>
      <trkpt lat="37.230471" lon="-119.234857">
        <ele>2122.56162</ele>
        <time>2024-06-23T08:56:53.000Z</time>
      </trkpt>
      <trkpt lat="37.230569" lon="-119.234854">
        <ele>2122.700584</ele>
        <time>2024-06-23T08:56:54.000Z</time>
      </trkpt>
      <trkpt lat="37.231288" lon="-119.234638">
        <ele>2123.820044</ele>
        <time>2024-06-23T08:57:02.000Z</time>
      </trkpt>
      <trkpt lat="37.231466" lon="-119.23465">
        <ele>2124.069708</ele>
        <time>2024-06-23T08:57:04.000Z</time>
      </trkpt>
      <trkpt lat="37.231595" lon="-119.234755">
        <ele>2124.303938</ele>
        <time>2024-06-23T08:57:06.000Z</time>
      </trkpt>
      <trkpt lat="37.231703" lon="-119.234901">
        <ele>2124.529566</ele>
        <time>2024-06-23T08:57:08.000Z</time>
      </trkpt>
      <trkpt lat="37.231755" lon="-119.235076">
        <ele>2124.757285</ele>
        <time>2024-06-23T08:57:10.000Z</time>
      </trkpt>
      <trkpt lat="37.231907" lon="-119.235311">
        <ele>2125.112923</ele>
        <time>2024-06-23T08:57:13.000Z</time>
      </trkpt>
      <trkpt lat="37.232074" lon="-119.235508">
        <ele>2125.124075</ele>
        <time>2024-06-23T08:57:16.000Z</time>
      </trkpt>
      <trkpt lat="37.232299" lon="-119.235602">
        <ele>2125.013155</ele>
        <time>2024-06-23T08:57:19.000Z</time>
      </trkpt>
      <trkpt lat="37.232554" lon="-119.235586">
        <ele>2124.893643</ele>
        <time>2024-06-23T08:57:22.000Z</time>
      </trkpt>
      <trkpt lat="37.232825" lon="-119.235425">
        <ele>2124.756017</ele>
        <time>2024-06-23T08:57:25.000Z</time>
      </trkpt>
      <trkpt lat="37.233329" lon="-119.235006">
        <ele>2124.47766</ele>
        <time>2024-06-23T08:57:32.000Z</time>
      </trkpt>
      <trkpt lat="37.233819" lon="-119.234602">
        <ele>2125.230257</ele>
        <time>2024-06-23T08:57:39.000Z</time>
      </trkpt>
      <trkpt lat="37.234072" lon="-119.23451">
        <ele>2125.871022</ele>
        <time>2024-06-23T08:57:42.000Z</time>
      </trkpt>
      <trkpt lat="37.234262" lon="-119.234537">
        <ele>2126.317998</ele>
        <time>2024-06-23T08:57:44.000Z</time>
      </trkpt>
      <trkpt lat="37.234415" lon="-119.234648">
        <ele>2126.786441</ele>
        <time>2024-06-23T08:57:46.000Z</time>
      </trkpt>
      <trkpt lat="37.234865" lon="-119.235107">
        <ele>2128.187941</ele>
        <time>2024-06-23T08:57:52.000Z</time>
      </trkpt>
      <trkpt lat="37.235332" lon="-119.235996">
        <ele>2131.158761</ele>
        <time>2024-06-23T08:58:01.000Z</time>
      </trkpt>
      <trkpt lat="37.235498" lon="-119.236769">
        <ele>2133.700553</ele>
        <time>2024-06-23T08:58:08.000Z</time>
      </trkpt>
      <trkpt lat="37.235962" lon="-119.237899">
        <ele>2134.729568</ele>
        <time>2024-06-23T08:58:19.000Z</time>
      </trkpt>
      <trkpt lat="37.236165" lon="-119.238259">
        <ele>2133.872255</ele>
        <time>2024-06-23T08:58:23.000Z</time>
      </trkpt>
      <trkpt lat="37.236419" lon="-119.238432">
        <ele>2133.139031</ele>
        <time>2024-06-23T08:58:26.000Z</time>
      </trkpt>
      <trkpt lat="37.236613" lon="-119.238409">
        <ele>2132.666838</ele>
        <time>2024-06-23T08:58:28.000Z</time>
      </trkpt>
      <trkpt lat="37.236676" lon="-119.238325">
        <ele>2132.416096</ele>
        <time>2024-06-23T08:58:29.000Z</time>
      </trkpt>
      <trkpt lat="37.23667" lon="-119.237845">
        <ele>2131.478049</ele>
        <time>2024-06-23T08:58:33.000Z</time>
      </trkpt>
      <trkpt lat="37.236548" lon="-119.236441">
        <ele>2126.691539</ele>
        <time>2024-06-23T08:58:46.000Z</time>
      </trkpt>
      <trkpt lat="37.236157" lon="-119.235891">
        <ele>2124.171513</ele>
        <time>2024-06-23T08:58:53.000Z</time>
      </trkpt>
      <trkpt lat="37.236125" lon="-119.235318">
        <ele>2123.124012</ele>
        <time>2024-06-23T08:58:58.000Z</time>
      </trkpt>
      <trkpt lat="37.235761" lon="-119.234807">
        <ele>2122.295675</ele>
        <time>2024-06-23T08:59:04.000Z</time>
      </trkpt>
      <trkpt lat="37.235675" lon="-119.234498">
        <ele>2121.915465</ele>
        <time>2024-06-23T08:59:07.000Z</time>
      </trkpt>
      <trkpt lat="37.235686" lon="-119.234158">
        <ele>2121.503148</ele>
        <time>2024-06-23T08:59:10.000Z</time>
      </trkpt>
      <trkpt lat="37.235712" lon="-119.234082">
        <ele>2121.39159</ele>
        <time>2024-06-23T08:59:11.000Z</time>
      </trkpt>
      <trkpt lat="37.236298" lon="-119.233273">
        <ele>2120.854868</ele>
        <time>2024-06-23T08:59:21.000Z</time>
      </trkpt>
      <trkpt lat="37.237298" lon="-119.231164">
        <ele>2121.035412</ele>
        <time>2024-06-23T08:59:43.000Z</time>
      </trkpt>
      <trkpt lat="37.237655" lon="-119.230854">
        <ele>2121.208211</ele>
        <time>2024-06-23T08:59:48.000Z</time>
      </trkpt>
      <trkpt lat="37.237774" lon="-119.230634">
        <ele>2121.284315</ele>
        <time>2024-06-23T08:59:50.000Z</time>
      </trkpt>
      <trkpt lat="37.237846" lon="-119.229361">
        <ele>2121.834632</ele>
        <time>2024-06-23T09:00:01.000Z</time>
      </trkpt>
      <trkpt lat="37.238108" lon="-119.227288">
        <ele>2123.38367</ele>
        <time>2024-06-23T09:00:20.000Z</time>
      </trkpt>
      <trkpt lat="37.238142" lon="-119.227036">
        <ele>2123.719488</ele>
        <time>2024-06-23T09:00:22.000Z</time>
      </trkpt>
      <trkpt lat="37.238237" lon="-119.226283">
        <ele>2124.761547</ele>
        <time>2024-06-23T09:00:29.000Z</time>
      </trkpt>
      <trkpt lat="37.238369" lon="-119.22515">
        <ele>2126.400247</ele>
        <time>2024-06-23T09:00:39.000Z</time>
      </trkpt>
      <trkpt lat="37.238321" lon="-119.22462">
        <ele>2127.220355</ele>
        <time>2024-06-23T09:00:44.000Z</time>
      </trkpt>
      <trkpt lat="37.238178" lon="-119.224327">
        <ele>2127.754807</ele>
        <time>2024-06-23T09:00:47.000Z</time>
      </trkpt>
      <trkpt lat="37.237648" lon="-119.223734">
        <ele>2129.105641</ele>
        <time>2024-06-23T09:00:55.000Z</time>
      </trkpt>
      <trkpt lat="37.237517" lon="-119.223274">
        <ele>2129.450909</ele>
        <time>2024-06-23T09:00:59.000Z</time>
      </trkpt>
      <trkpt lat="37.237552" lon="-119.221715">
        <ele>2130.386059</ele>
        <time>2024-06-23T09:01:13.000Z</time>
      </trkpt>
      <trkpt lat="37.237519" lon="-119.220126">
        <ele>2131.547028</ele>
        <time>2024-06-23T09:01:27.000Z</time>
      </trkpt>
      <trkpt lat="37.237557" lon="-119.219463">
        <ele>2132.04168</ele>
        <time>2024-06-23T09:01:33.000Z</time>
      </trkpt>
      <trkpt lat="37.237669" lon="-119.219049">
        <ele>2132.78759</ele>
        <time>2024-06-23T09:01:37.000Z</time>
      </trkpt>
      <trkpt lat="37.237974" lon="-119.218204">
        <ele>2135.702989</ele>
        <time>2024-06-23T09:01:45.000Z</time>
      </trkpt>
      <trkpt lat="37.238471" lon="-119.217372">
        <ele>2139.040062</ele>
        <time>2024-06-23T09:01:54.000Z</time>
      </trkpt>
      <trkpt lat="37.23868" lon="-119.216727">
        <ele>2144.079381</ele>
        <time>2024-06-23T09:02:00.000Z</time>
      </trkpt>
      <trkpt lat="37.238786" lon="-119.216517">
        <ele>2146.184742</ele>
        <time>2024-06-23T09:02:02.000Z</time>
      </trkpt>
      <trkpt lat="37.239817" lon="-119.214919">
        <ele>2161.963579</ele>
        <time>2024-06-23T09:02:20.000Z</time>
      </trkpt>
      <trkpt lat="37.241595" lon="-119.212636">
        <ele>2178.539052</ele>
        <time>2024-06-23T09:02:48.000Z</time>
      </trkpt>
      <trkpt lat="37.241745" lon="-119.21226">
        <ele>2180.106497</ele>
        <time>2024-06-23T09:02:52.000Z</time>
      </trkpt>
      <trkpt lat="37.241924" lon="-119.211073">
        <ele>2180.966002</ele>
        <time>2024-06-23T09:03:03.000Z</time>
      </trkpt>
      <trkpt lat="37.242068" lon="-119.21078">
        <ele>2180.886429</ele>
        <time>2024-06-23T09:03:06.000Z</time>
      </trkpt>
      <trkpt lat="37.242424" lon="-119.210394">
        <ele>2180.748343</ele>
        <time>2024-06-23T09:03:11.000Z</time>
      </trkpt>
      <trkpt lat="37.243256" lon="-119.209722">
        <ele>2180.276526</ele>
        <time>2024-06-23T09:03:22.000Z</time>
      </trkpt>
      <trkpt lat="37.243456" lon="-119.209456">
        <ele>2180.112461</ele>
        <time>2024-06-23T09:03:25.000Z</time>
      </trkpt>
      <trkpt lat="37.244254" lon="-119.207294">
        <ele>2178.563011</ele>
        <time>2024-06-23T09:03:46.000Z</time>
      </trkpt>
      <trkpt lat="37.244351" lon="-119.206732">
        <ele>2178.100199</ele>
        <time>2024-06-23T09:03:51.000Z</time>
      </trkpt>
      <trkpt lat="37.244422" lon="-119.20597">
        <ele>2176.366304</ele>
        <time>2024-06-23T09:03:58.000Z</time>
      </trkpt>
      <trkpt lat="37.244698" lon="-119.205021">
        <ele>2172.96269</ele>
        <time>2024-06-23T09:04:07.000Z</time>
      </trkpt>
      <trkpt lat="37.244865" lon="-119.204751">
        <ele>2171.805357</ele>
        <time>2024-06-23T09:04:10.000Z</time>
      </trkpt>
      <trkpt lat="37.245699" lon="-119.203811">
        <ele>2164.6164</ele>
        <time>2024-06-23T09:04:22.000Z</time>
      </trkpt>
      <trkpt lat="37.246125" lon="-119.202646">
        <ele>2156.758731</ele>
        <time>2024-06-23T09:04:33.000Z</time>
      </trkpt>
      <trkpt lat="37.246543" lon="-119.201978">
        <ele>2152.973421</ele>
        <time>2024-06-23T09:04:41.000Z</time>
      </trkpt>
      <trkpt lat="37.246654" lon="-119.201893">
        <ele>2152.270611</ele>
        <time>2024-06-23T09:04:42.000Z</time>
      </trkpt>
      <trkpt lat="37.247165" lon="-119.201735">
        <ele>2149.399819</ele>
        <time>2024-06-23T09:04:48.000Z</time>
      </trkpt>
      <trkpt lat="37.247289" lon="-119.201644">
        <ele>2148.66251</ele>
        <time>2024-06-23T09:04:50.000Z</time>
      </trkpt>
      <trkpt lat="37.247406" lon="-119.201404">
        <ele>2147.444011</ele>
        <time>2024-06-23T09:04:52.000Z</time>
      </trkpt>
      <trkpt lat="37.247418" lon="-119.200803">
        <ele>2147.777147</ele>
        <time>2024-06-23T09:04:57.000Z</time>
      </trkpt>
      <trkpt lat="37.247505" lon="-119.200332">
        <ele>2149.193601</ele>
        <time>2024-06-23T09:05:01.000Z</time>
      </trkpt>
      <trkpt lat="37.247677" lon="-119.20007">
        <ele>2150.220052</ele>
        <time>2024-06-23T09:05:04.000Z</time>
      </trkpt>
      <trkpt lat="37.248145" lon="-119.199801">
        <ele>2152.084573</ele>
        <time>2024-06-23T09:05:10.000Z</time>
      </trkpt>
      <trkpt lat="37.248311" lon="-119.199671">
        <ele>2152.821766</ele>
        <time>2024-06-23T09:05:12.000Z</time>
      </trkpt>
      <trkpt lat="37.248564" lon="-119.199164">
        <ele>2154.576203</ele>
        <time>2024-06-23T09:05:17.000Z</time>
      </trkpt>
      <trkpt lat="37.24868" lon="-119.197919">
        <ele>2158.112955</ele>
        <time>2024-06-23T09:05:28.000Z</time>
      </trkpt>
      <trkpt lat="37.248633" lon="-119.197126">
        <ele>2159.518454</ele>
        <time>2024-06-23T09:05:35.000Z</time>
      </trkpt>
      <trkpt lat="37.248551" lon="-119.196416">
        <ele>2159.09701</ele>
        <time>2024-06-23T09:05:41.000Z</time>
      </trkpt>
      <trkpt lat="37.24848" lon="-119.195433">
        <ele>2158.517774</ele>
        <time>2024-06-23T09:05:50.000Z</time>
      </trkpt>
      <trkpt lat="37.248554" lon="-119.19502">
        <ele>2158.405768</ele>
        <time>2024-06-23T09:05:54.000Z</time>
      </trkpt>
      <trkpt lat="37.248767" lon="-119.194576">
        <ele>2158.708413</ele>
        <time>2024-06-23T09:05:59.000Z</time>
      </trkpt>
      <trkpt lat="37.24929" lon="-119.193896">
        <ele>2159.262857</ele>
        <time>2024-06-23T09:06:07.000Z</time>
      </trkpt>
      <trkpt lat="37.249562" lon="-119.193415">
        <ele>2159.620696</ele>
        <time>2024-06-23T09:06:12.000Z</time>
      </trkpt>
      <trkpt lat="37.249679" lon="-119.192926">
        <ele>2160.536199</ele>
        <time>2024-06-23T09:06:17.000Z</time>
      </trkpt>
      <trkpt lat="37.249672" lon="-119.192299">
        <ele>2161.841089</ele>
        <time>2024-06-23T09:06:23.000Z</time>
      </trkpt>
      <trkpt lat="37.249976" lon="-119.191119">
        <ele>2164.451267</ele>
        <time>2024-06-23T09:06:34.000Z</time>
      </trkpt>
      <trkpt lat="37.250148" lon="-119.189962">
        <ele>2168.147922</ele>
        <time>2024-06-23T09:06:44.000Z</time>
      </trkpt>
      <trkpt lat="37.250204" lon="-119.188881">
        <ele>2171.515442</ele>
        <time>2024-06-23T09:06:54.000Z</time>
      </trkpt>
      <trkpt lat="37.25019" lon="-119.188458">
        <ele>2172.394016</ele>
        <time>2024-06-23T09:06:58.000Z</time>
      </trkpt>
      <trkpt lat="37.249744" lon="-119.186194">
        <ele>2174.97955</ele>
        <time>2024-06-23T09:07:19.000Z</time>
      </trkpt>
      <trkpt lat="37.249718" lon="-119.185784">
        <ele>2174.027481</ele>
        <time>2024-06-23T09:07:23.000Z</time>
      </trkpt>
      <trkpt lat="37.249737" lon="-119.185584">
        <ele>2173.533405</ele>
        <time>2024-06-23T09:07:25.000Z</time>
      </trkpt>
      <trkpt lat="37.24982" lon="-119.185402">
        <ele>2173.07649</ele>
        <time>2024-06-23T09:07:27.000Z</time>
      </trkpt>
      <trkpt lat="37.250032" lon="-119.185082">
        <ele>2172.098091</ele>
        <time>2024-06-23T09:07:31.000Z</time>
      </trkpt>
      <trkpt lat="37.250466" lon="-119.18487">
        <ele>2170.527051</ele>
        <time>2024-06-23T09:07:36.000Z</time>
      </trkpt>
      <trkpt lat="37.252837" lon="-119.184458">
        <ele>2156.139088</ele>
        <time>2024-06-23T09:08:03.000Z</time>
      </trkpt>
      <trkpt lat="37.252973" lon="-119.184298">
        <ele>2155.045768</ele>
        <time>2024-06-23T09:08:05.000Z</time>
      </trkpt>
      <trkpt lat="37.252987" lon="-119.184128">
        <ele>2154.179296</ele>
        <time>2024-06-23T09:08:07.000Z</time>
      </trkpt>
      <trkpt lat="37.25288" lon="-119.183951">
        <ele>2153.031412</ele>
        <time>2024-06-23T09:08:09.000Z</time>
      </trkpt>
      <trkpt lat="37.252366" lon="-119.183951">
        <ele>2149.955263</ele>
        <time>2024-06-23T09:08:15.000Z</time>
      </trkpt>
      <trkpt lat="37.252167" lon="-119.183846">
        <ele>2148.497104</ele>
        <time>2024-06-23T09:08:17.000Z</time>
      </trkpt>
      <trkpt lat="37.251191" lon="-119.182451">
        <ele>2137.686068</ele>
        <time>2024-06-23T09:08:33.000Z</time>
      </trkpt>
      <trkpt lat="37.251014" lon="-119.182258">
        <ele>2136.023273</ele>
        <time>2024-06-23T09:08:36.000Z</time>
      </trkpt>
      <trkpt lat="37.250254" lon="-119.18176">
        <ele>2130.965618</ele>
        <time>2024-06-23T09:08:46.000Z</time>
      </trkpt>
      <trkpt lat="37.25015" lon="-119.181603">
        <ele>2129.960993</ele>
        <time>2024-06-23T09:08:48.000Z</time>
      </trkpt>
      <trkpt lat="37.250116" lon="-119.181416">
        <ele>2129.060673</ele>
        <time>2024-06-23T09:08:50.000Z</time>
      </trkpt>
      <trkpt lat="37.250197" lon="-119.181106">
        <ele>2127.497825</ele>
        <time>2024-06-23T09:08:53.000Z</time>
      </trkpt>
      <trkpt lat="37.250279" lon="-119.180992">
        <ele>2126.795186</ele>
        <time>2024-06-23T09:08:54.000Z</time>
      </trkpt>
      <trkpt lat="37.250419" lon="-119.180929">
        <ele>2125.933832</ele>
        <time>2024-06-23T09:08:56.000Z</time>
      </trkpt>
      <trkpt lat="37.250546" lon="-119.180932">
        <ele>2125.35884</ele>
        <time>2024-06-23T09:08:57.000Z</time>
      </trkpt>
      <trkpt lat="37.251122" lon="-119.181094">
        <ele>2124.29788</ele>
        <time>2024-06-23T09:09:04.000Z</time>
      </trkpt>
      <trkpt lat="37.251382" lon="-119.181039">
        <ele>2123.839483</ele>
        <time>2024-06-23T09:09:07.000Z</time>
      </trkpt>
      <trkpt lat="37.251574" lon="-119.180852">
        <ele>2123.419703</ele>
        <time>2024-06-23T09:09:10.000Z</time>
      </trkpt>
      <trkpt lat="37.251922" lon="-119.180145">
        <ele>2122.238559</ele>
        <time>2024-06-23T09:09:17.000Z</time>
      </trkpt>
      <trkpt lat="37.251969" lon="-119.17957">
        <ele>2122.398991</ele>
        <time>2024-06-23T09:09:22.000Z</time>
      </trkpt>
      <trkpt lat="37.252113" lon="-119.179032">
        <ele>2122.559821</ele>
        <time>2024-06-23T09:09:27.000Z</time>
      </trkpt>
      <trkpt lat="37.252534" lon="-119.177492">
        <ele>2123.053917</ele>
        <time>2024-06-23T09:09:41.000Z</time>
      </trkpt>
      <trkpt lat="37.252637" lon="-119.176637">
        <ele>2123.35904</ele>
        <time>2024-06-23T09:09:49.000Z</time>
      </trkpt>
      <trkpt lat="37.252634" lon="-119.175368">
        <ele>2123.661757</ele>
        <time>2024-06-23T09:10:00.000Z</time>
      </trkpt>
      <trkpt lat="37.252472" lon="-119.17494">
        <ele>2123.77480912</ele>
        <time>2024-06-23T09:10:04.000Z</time>
      </trkpt>
      <trkpt lat="37.252411" lon="-119.174615">
        <ele>2123.85446212</ele>
        <time>2024-06-23T09:10:07.000Z</time>
      </trkpt>
      <trkpt lat="37.251983" lon="-119.174531">
        <ele>2123.98428407</ele>
        <time>2024-06-23T09:10:12.000Z</time>
      </trkpt>
      <trkpt lat="37.251675" lon="-119.174215">
        <ele>2124.10345708</ele>
        <time>2024-06-23T09:10:16.000Z</time>
      </trkpt>
      <trkpt lat="37.251511" lon="-119.174131">
        <ele>2124.15653361</ele>
        <time>2024-06-23T09:10:18.000Z</time>
      </trkpt>
      <trkpt lat="37.25137" lon="-119.174094">
        <ele>2124.19970149</ele>
        <time>2024-06-23T09:10:20.000Z</time>
      </trkpt>
    </trkseg>
  </trk>
</gpx>

<!--
Performance optimized by W3 Total Cache. Learn more: https://www.boldgrid.com/w3-total-cache/?utm_source=w3tc&utm_medium=footer_comment&utm_campaign=free_plugin

Page Caching using Disk: Enhanced{w3tc_pagecache_reject_reason} 

Served from: www.aquabike.world @ 2026-05-10 18:49:33 by W3 Total Cache
-->